Date,TemperatureHighF,TemperatureAvgF,TemperatureLowF,DewpointHighF,DewpointAvgF,DewpointLowF,HumidityHigh,HumidityAvg,HumidityLow,PressureMaxIn,PressureMinIn,WindSpeedMaxMPH,WindSpeedAvgMPH,GustSpeedMaxMPH,PrecipitationSumIn
2013-2-1,70,54,40,34,23,16,51,33,14,0.00,40.00,9,4,15,0.00
2013-2-2,71,58,45,36,23,13,51,28,11,0.00,40.00,8,3,14,0.00
2013-2-3,63,55,44,43,39,35,81,57,36,0.00,40.00,10,5,17,0.00
2013-2-4,67,52,40,44,34,22,81,55,18,0.00,40.00,10,5,17,0.00
2013-2-5,66,51,39,44,33,27,97,57,24,0.00,40.00,11,4,23,0.00
2013-2-6,57,43,33,43,37,28,98,80,55,0.00,40.00,9,4,13,0.00
2013-2-7,62,47,34,43,30,16,87,58,17,0.00,40.00,10,4,21,0.00
2013-2-8,41,37,33,36,32,29,93,83,74,0.00,40.00,14,8,27,0.00
2013-2-9,42,36,31,33,30,28,95,81,67,0.00,40.00,10,5,18,0.00
2013-2-10,41,36,29,34,30,26,90,79,64,0.00,40.00,9,4,17,0.00
2013-2-11,46,37,27,33,24,9,92,62,29,0.00,40.00,10,4,15,0.00
2013-2-12,54,39,27,17,12,3,59,36,14,0.00,40.00,11,5,19,0.00
2013-2-13,61,45,28,30,20,13,59,40,19,0.00,40.00,11,5,17,0.00
2013-2-14,64,52,35,25,21,16,64,33,17,0.00,40.00,30,8,46,0.00
2013-2-15,64,59,54,19,10,-2,22,15,7,0.00,40.00,36,15,56,0.00
2013-2-16,68,59,41,20,7,-3,41,15,6,0.00,40.00,29,15,61,0.00
2013-2-17,61,47,33,31,19,10,56,35,14,0.00,40.00,13,5,24,0.00
2013-2-18,63,44,28,40,25,8,88,52,11,0.00,40.00,11,4,23,0.00
2013-2-19,40,37,31,38,33,26,92,84,72,0.00,40.00,12,6,23,0.00
2013-2-20,40,35,28,32,29,26,97,79,62,0.00,40.00,19,8,40,0.00
2013-2-21,43,34,27,35,30,23,94,84,63,0.00,40.00,11,5,15,0.00
2013-2-22,55,40,26,30,23,16,84,55,24,0.00,40.00,11,5,18,0.00
2013-2-23,59,42,30,30,25,21,77,54,25,0.00,40.00,12,5,21,0.00
2013-2-24,50,41,31,25,7,-5,77,30,12,0.00,40.00,31,10,44,0.00
2013-2-25,60,44,29,19,10,2,45,26,12,0.00,40.00,10,5,21,0.00
2013-2-26,62,46,27,16,10,2,59,27,12,0.00,40.00,24,8,35,0.00
2013-2-27,59,50,38,9,4,0,29,16,11,0.00,40.00,25,11,39,0.00
2013-2-28,64,54,36,13,5,-2,32,14,10,0.00,40.00,33,14,50,0.00